Terminal Aerodrome Forecast
Issued by NWS Flagstaff, AZ

Home | Current Version | Previous Version | Text Only | Print | Product List | Glossary On
Versions: 1 2 3 4 5 6 7 8 9 10 11 12 13 14 15 16 17 18
000
FTUS45 KFGZ 231700
TAFFLG
TAF
KFLG 231723Z 2318/2418 26014G24KT P6SM SCT100 BKN250
     FM240200 VRB03KT P6SM SCT250
     FM241600 18010KT P6SM FEW250=

USA.gov is the U.S. government's official web portal to all federal, state and local government web resources and services.